createdAt,value
2022-10-03T00:00:42.194Z,20.40
2022-10-03T00:03:18.620Z,20.40
2022-10-03T00:05:57.159Z,20.40
2022-10-03T00:08:36.087Z,20.40
2022-10-03T00:11:21.649Z,20.40
2022-10-03T00:13:48.669Z,20.40
2022-10-03T00:16:23.346Z,20.30
2022-10-03T00:19:02.629Z,20.40
2022-10-03T00:21:48.490Z,20.40
2022-10-03T00:24:34.409Z,20.30
2022-10-03T00:27:01.427Z,20.30
2022-10-03T00:29:47.203Z,20.30
2022-10-03T00:32:23.337Z,20.30
2022-10-03T00:34:53.328Z,20.30
2022-10-03T00:37:39.268Z,20.30
2022-10-03T00:40:25.184Z,20.30
2022-10-03T00:43:11.660Z,20.30
2022-10-03T00:45:51.787Z,20.30
2022-10-03T00:48:44.149Z,20.20
2022-10-03T00:51:29.734Z,20.20
2022-10-03T00:54:15.824Z,20.30
2022-10-03T00:56:54.974Z,20.20
2022-10-03T00:59:46.171Z,20.20
2022-10-03T01:02:30.024Z,20.20
2022-10-03T01:04:57.283Z,20.20
2022-10-03T01:07:56.087Z,20.20
2022-10-03T01:10:27.694Z,20.20
2022-10-03T01:12:57.927Z,20.20
2022-10-03T01:15:30.968Z,20.20
2022-10-03T01:18:10.246Z,20.20
2022-10-03T01:20:46.440Z,20.10
2022-10-03T01:23:30.680Z,20.10
2022-10-03T01:26:36.071Z,20.20
2022-10-03T01:29:30.965Z,20.10
2022-10-03T01:32:16.760Z,20.10
2022-10-03T01:34:43.729Z,20.10
2022-10-03T01:37:13.172Z,20.10
2022-10-03T01:39:50.367Z,20.10
2022-10-03T01:42:31.298Z,20.10
2022-10-03T01:45:17.363Z,20.10
2022-10-03T01:47:51.393Z,20.10
2022-10-03T01:50:26.327Z,20.10
2022-10-03T01:52:53.337Z,20.10
2022-10-03T01:55:41.460Z,20.00
2022-10-03T01:58:23.475Z,20.00
2022-10-03T02:00:56.640Z,20.00
2022-10-03T02:03:27.678Z,20.00
2022-10-03T02:06:00.637Z,20.00
2022-10-03T02:08:43.245Z,20.00
2022-10-03T02:11:10.925Z,20.00
2022-10-03T02:13:46.993Z,20.00
2022-10-03T02:16:20.995Z,20.00
2022-10-03T02:19:03.220Z,20.00
2022-10-03T02:21:32.033Z,20.00
2022-10-03T02:24:17.519Z,20.00
2022-10-03T02:26:45.047Z,20.00
2022-10-03T02:29:15.360Z,20.00
2022-10-03T02:32:01.173Z,19.90
2022-10-03T02:34:46.809Z,19.90
2022-10-03T02:37:32.325Z,19.90
2022-10-03T02:40:05.514Z,19.90
2022-10-03T02:42:32.515Z,19.90
2022-10-03T02:45:08.726Z,19.90
2022-10-03T02:47:35.737Z,19.90
2022-10-03T02:50:32.520Z,19.90
2022-10-03T02:53:02.607Z,19.90
2022-10-03T02:55:56.471Z,19.90
2022-10-03T02:58:29.729Z,19.90
2022-10-03T03:01:15.766Z,19.90
2022-10-03T03:04:05.810Z,19.90
2022-10-03T03:06:52.685Z,19.90
2022-10-03T03:09:29.332Z,19.80
2022-10-03T03:12:08.505Z,19.90
2022-10-03T03:14:41.647Z,19.80
2022-10-03T03:17:21.711Z,19.80
2022-10-03T03:20:00.799Z,19.80
2022-10-03T03:22:32.220Z,19.80
2022-10-03T03:24:59.163Z,19.80
2022-10-03T03:27:38.373Z,19.80
2022-10-03T03:30:08.707Z,19.80
2022-10-03T03:32:47.235Z,19.80
2022-10-03T03:35:26.302Z,19.70
2022-10-03T03:38:07.184Z,19.80
2022-10-03T03:40:34.212Z,19.80
2022-10-03T03:43:21.504Z,19.80
2022-10-03T03:45:51.383Z,19.70
2022-10-03T03:48:37.693Z,19.80
2022-10-03T03:51:15.081Z,19.80
2022-10-03T03:53:54.390Z,19.70
2022-10-03T03:56:40.136Z,19.80
2022-10-03T03:59:13.496Z,19.80
2022-10-03T04:01:56.672Z,19.80
2022-10-03T04:04:39.153Z,19.90
2022-10-03T04:07:07.128Z,19.90
2022-10-03T04:09:52.796Z,20.00
2022-10-03T04:12:26.271Z,20.30
2022-10-03T04:15:31.834Z,20.60
2022-10-03T04:18:20.305Z,20.90
2022-10-03T04:21:00.867Z,21.20
2022-10-03T04:23:27.878Z,21.50
2022-10-03T04:26:04.913Z,21.70
2022-10-03T04:28:38.661Z,21.70
2022-10-03T04:31:24.501Z,21.90
2022-10-03T04:34:00.655Z,22.00
2022-10-03T04:36:47.910Z,22.00
2022-10-03T04:39:14.874Z,22.10
2022-10-03T04:41:45.286Z,22.10
2022-10-03T04:44:21.231Z,22.20
2022-10-03T04:46:52.852Z,22.20
2022-10-03T04:49:41.379Z,22.20
2022-10-03T04:52:26.980Z,22.20
2022-10-03T04:55:02.401Z,22.20
2022-10-03T04:57:32.311Z,22.20
2022-10-03T05:00:04.003Z,22.20
2022-10-03T05:02:34.546Z,22.20
2022-10-03T05:05:20.360Z,22.20
2022-10-03T05:07:54.538Z,22.10
2022-10-03T05:10:39.897Z,22.00
2022-10-03T05:13:12.932Z,22.00
2022-10-03T05:15:49.061Z,21.90
2022-10-03T05:18:27.193Z,21.90
2022-10-03T05:21:05.651Z,21.90
2022-10-03T05:23:44.969Z,21.90
2022-10-03T05:26:43.567Z,21.90
2022-10-03T05:29:25.266Z,21.90
2022-10-03T05:32:10.807Z,21.80
2022-10-03T05:34:38.781Z,21.80
2022-10-03T05:37:20.723Z,21.80
2022-10-03T05:40:07.867Z,21.70
2022-10-03T05:42:43.930Z,21.70
2022-10-03T05:45:31.508Z,21.70
2022-10-03T05:48:17.294Z,21.70
2022-10-03T05:50:57.746Z,21.70
2022-10-03T05:53:25.134Z,21.60
2022-10-03T05:56:02.406Z,21.60
2022-10-03T05:58:38.098Z,21.60
2022-10-03T06:01:41.199Z,21.50
2022-10-03T06:04:23.130Z,21.50
2022-10-03T06:07:06.019Z,21.50
2022-10-03T06:09:51.542Z,21.40
2022-10-03T06:12:44.984Z,21.40
2022-10-03T06:15:30.118Z,21.40
2022-10-03T06:18:16.433Z,20.20
2022-10-03T06:20:55.563Z,20.10
2022-10-03T06:23:28.451Z,20.40
2022-10-03T06:26:08.174Z,20.80
2022-10-03T06:28:53.903Z,21.00
2022-10-03T06:31:40.034Z,21.20
2022-10-03T06:34:26.159Z,21.30
2022-10-03T06:37:08.235Z,21.50
2022-10-03T06:39:53.149Z,21.60
2022-10-03T06:42:39.194Z,21.70
2022-10-03T06:45:16.092Z,21.80
2022-10-03T06:47:47.630Z,21.90
2022-10-03T06:50:40.077Z,21.90
2022-10-03T06:53:16.465Z,22.00
2022-10-03T06:55:49.697Z,22.00
2022-10-03T06:58:35.637Z,22.10
2022-10-03T07:01:02.763Z,22.20
2022-10-03T07:03:49.908Z,22.20
2022-10-03T07:06:29.856Z,22.10
2022-10-03T07:09:12.862Z,22.10
2022-10-03T07:11:48.811Z,22.10
2022-10-03T07:14:36.861Z,22.10
2022-10-03T07:17:06.725Z,22.00
2022-10-03T07:19:48.976Z,22.00
2022-10-03T07:22:34.764Z,21.90
2022-10-03T07:25:05.207Z,21.90
2022-10-03T07:27:32.252Z,21.80
2022-10-03T07:30:13.402Z,21.80
2022-10-03T07:32:51.293Z,21.80
2022-10-03T07:35:27.184Z,21.80
2022-10-03T07:38:25.031Z,21.80
2022-10-03T07:41:07.202Z,21.70
2022-10-03T07:43:55.995Z,21.70
2022-10-03T07:46:35.398Z,21.70
2022-10-03T07:49:18.371Z,21.60
2022-10-03T07:51:54.647Z,21.60
2022-10-03T07:54:21.729Z,21.60
2022-10-03T07:57:04.298Z,21.50
2022-10-03T07:59:40.986Z,21.50
2022-10-03T08:02:25.526Z,21.50
2022-10-03T08:04:55.352Z,21.40
2022-10-03T08:07:41.015Z,21.40
2022-10-03T08:10:09.129Z,21.40
2022-10-03T08:12:46.174Z,21.40
2022-10-03T08:15:20.324Z,21.40
2022-10-03T08:18:00.719Z,21.30
2022-10-03T08:20:27.691Z,21.30
2022-10-03T08:23:13.177Z,21.30
2022-10-03T08:25:56.429Z,21.30
2022-10-03T08:28:46.239Z,21.30
2022-10-03T08:31:25.437Z,21.30
2022-10-03T08:34:11.201Z,21.20
2022-10-03T08:36:45.311Z,21.20
2022-10-03T08:39:30.513Z,21.30
2022-10-03T08:42:00.527Z,21.20
2022-10-03T08:44:57.129Z,21.20
2022-10-03T08:47:26.979Z,21.20
2022-10-03T08:50:15.147Z,21.20
2022-10-03T08:52:44.950Z,21.20
2022-10-03T08:55:31.028Z,21.10
2022-10-03T08:58:06.019Z,21.10
2022-10-03T09:00:42.088Z,21.10
2022-10-03T09:03:34.281Z,21.00
2022-10-03T09:06:13.310Z,21.10
2022-10-03T09:08:59.101Z,21.00
2022-10-03T09:11:41.623Z,21.00
2022-10-03T09:14:27.278Z,21.00
2022-10-03T09:17:09.299Z,21.00
2022-10-03T09:19:55.251Z,21.00
2022-10-03T09:22:31.640Z,21.00
2022-10-03T09:25:07.899Z,21.00
2022-10-03T09:27:42.535Z,21.00
2022-10-03T09:30:38.916Z,20.90
2022-10-03T09:33:05.857Z,20.90
2022-10-03T09:35:48.218Z,20.90
2022-10-03T09:38:15.215Z,20.90
2022-10-03T09:41:01.151Z,20.90
2022-10-03T09:43:52.371Z,20.80
2022-10-03T09:46:40.050Z,20.80
2022-10-03T09:49:27.150Z,20.80
2022-10-03T09:52:10.078Z,20.80
2022-10-03T09:54:50.025Z,20.80
2022-10-03T09:57:38.812Z,20.80
2022-10-03T10:00:22.395Z,20.70
2022-10-03T10:02:58.586Z,20.70
2022-10-03T10:05:39.488Z,20.70
2022-10-03T10:08:29.917Z,20.70
2022-10-03T10:11:03.101Z,20.70
2022-10-03T10:14:08.241Z,20.70
2022-10-03T10:16:54.292Z,20.70
2022-10-03T10:19:21.645Z,20.80
2022-10-03T10:21:57.630Z,20.70
2022-10-03T10:24:33.862Z,20.70
2022-10-03T10:27:03.948Z,20.70
2022-10-03T10:29:49.797Z,20.70
2022-10-03T10:32:35.732Z,20.70
2022-10-03T10:35:22.106Z,20.70
2022-10-03T10:37:49.113Z,20.70
2022-10-03T10:40:34.488Z,20.70
2022-10-03T10:43:01.494Z,20.70
2022-10-03T10:45:35.997Z,20.70
2022-10-03T10:48:21.707Z,20.70
2022-10-03T10:50:50.518Z,20.70
2022-10-03T10:53:37.679Z,20.70
2022-10-03T10:56:17.861Z,20.70
2022-10-03T10:59:03.392Z,20.70
2022-10-03T11:01:46.061Z,20.70
2022-10-03T11:04:31.345Z,20.70
2022-10-03T11:07:11.802Z,20.70
2022-10-03T11:09:46.480Z,20.70
2022-10-03T11:12:32.782Z,20.60
2022-10-03T11:15:36.104Z,20.70
2022-10-03T11:18:12.573Z,20.70
2022-10-03T11:20:45.652Z,20.60
2022-10-03T11:23:22.421Z,20.50
2022-10-03T11:25:53.769Z,20.50
2022-10-03T11:28:27.684Z,20.60
2022-10-03T11:30:57.865Z,20.60
2022-10-03T11:33:42.019Z,20.60
2022-10-03T11:36:27.910Z,20.60
2022-10-03T11:39:03.643Z,20.60
2022-10-03T11:41:46.805Z,20.70
2022-10-03T11:44:16.580Z,20.80
2022-10-03T11:46:50.197Z,21.00
2022-10-03T11:49:46.039Z,21.20
2022-10-03T11:52:15.835Z,21.30
2022-10-03T11:54:45.673Z,21.60
2022-10-03T11:57:28.333Z,21.80
2022-10-03T12:00:17.679Z,21.90
2022-10-03T12:03:08.108Z,22.10
2022-10-03T12:05:48.604Z,22.20
2022-10-03T12:08:47.148Z,22.20
2022-10-03T12:11:17.912Z,22.20
2022-10-03T12:14:01.064Z,22.20
2022-10-03T12:16:38.000Z,22.20
2022-10-03T12:19:12.866Z,22.10
2022-10-03T12:21:47.730Z,22.10
2022-10-03T12:24:14.721Z,22.10
2022-10-03T12:26:45.564Z,22.10
2022-10-03T12:29:14.198Z,22.10
2022-10-03T12:31:48.220Z,22.10
2022-10-03T12:34:24.539Z,22.10
2022-10-03T12:37:09.185Z,22.00
2022-10-03T12:39:52.381Z,22.00
2022-10-03T12:42:30.556Z,22.00
2022-10-03T12:45:03.384Z,22.00
2022-10-03T12:47:55.650Z,22.00
2022-10-03T12:50:43.039Z,22.10
2022-10-03T12:53:16.345Z,22.10
2022-10-03T12:55:51.199Z,22.10
2022-10-03T12:58:24.556Z,22.10
2022-10-03T13:01:02.654Z,22.10
2022-10-03T13:03:40.022Z,22.10
2022-10-03T13:07:03.765Z,22.10
2022-10-03T13:09:32.834Z,22.10
2022-10-03T13:12:08.861Z,22.00
2022-10-03T13:14:54.512Z,22.10
2022-10-03T13:17:36.691Z,22.10
2022-10-03T13:20:12.354Z,22.10
2022-10-03T13:22:55.963Z,22.10
2022-10-03T13:25:37.904Z,22.10
2022-10-03T13:28:12.877Z,22.10
2022-10-03T13:30:40.047Z,22.10
2022-10-03T13:33:18.789Z,22.10
2022-10-03T13:36:05.493Z,22.10
2022-10-03T13:38:52.509Z,22.00
2022-10-03T13:41:31.131Z,22.10
2022-10-03T13:44:00.625Z,22.10
2022-10-03T13:46:32.061Z,22.10
2022-10-03T13:49:10.703Z,22.10
2022-10-03T13:51:47.472Z,22.10
2022-10-03T13:54:21.177Z,22.00
2022-10-03T13:56:54.559Z,22.10
2022-10-03T13:59:24.405Z,22.10
2022-10-03T14:01:51.462Z,22.10
2022-10-03T14:04:21.631Z,22.10
2022-10-03T14:06:51.138Z,22.20
2022-10-03T14:09:38.886Z,22.10
2022-10-03T14:12:08.891Z,22.10
2022-10-03T14:14:50.126Z,22.00
2022-10-03T14:17:22.349Z,22.10
2022-10-03T14:19:55.731Z,22.00
2022-10-03T14:22:37.948Z,22.00
2022-10-03T14:25:17.075Z,22.00
2022-10-03T14:27:50.451Z,22.00
2022-10-03T14:30:24.725Z,21.90
2022-10-03T14:33:11.968Z,21.90
2022-10-03T14:35:55.557Z,21.90
2022-10-03T14:38:22.549Z,21.80
2022-10-03T14:40:50.954Z,21.80
2022-10-03T14:43:18.067Z,21.80
2022-10-03T14:45:48.250Z,21.80
2022-10-03T14:48:24.590Z,21.80
2022-10-03T14:50:54.709Z,21.80
2022-10-03T14:53:24.979Z,21.90
2022-10-03T14:55:56.109Z,21.90
2022-10-03T14:58:28.700Z,21.80
2022-10-03T15:01:12.964Z,21.80
2022-10-03T15:03:49.405Z,21.80
2022-10-03T15:06:21.565Z,21.80
2022-10-03T15:08:51.905Z,21.80
2022-10-03T15:11:24.034Z,21.80
2022-10-03T15:13:53.983Z,21.80
2022-10-03T15:16:22.431Z,21.90
2022-10-03T15:18:57.577Z,21.90
2022-10-03T15:21:25.860Z,22.00
2022-10-03T15:23:59.018Z,22.10
2022-10-03T15:26:27.975Z,22.10
2022-10-03T15:28:59.363Z,22.20
2022-10-03T15:31:32.311Z,22.30
2022-10-03T15:34:00.990Z,22.30
2022-10-03T15:36:30.950Z,22.30
2022-10-03T15:39:00.529Z,22.40
2022-10-03T15:41:49.054Z,22.40
2022-10-03T15:44:26.784Z,22.50
2022-10-03T15:46:56.767Z,22.50
2022-10-03T15:49:30.370Z,22.50
2022-10-03T15:52:00.009Z,22.50
2022-10-03T15:54:29.847Z,22.50
2022-10-03T15:56:58.883Z,22.40
2022-10-03T15:59:28.260Z,22.40
2022-10-03T16:01:56.195Z,22.40
2022-10-03T16:04:24.760Z,22.40
2022-10-03T16:06:51.794Z,22.40
2022-10-03T16:09:21.891Z,22.30
2022-10-03T16:11:48.921Z,22.30
2022-10-03T16:14:29.985Z,22.30
2022-10-03T16:16:59.629Z,22.20
2022-10-03T16:19:26.649Z,22.30
2022-10-03T16:21:58.417Z,22.20
2022-10-03T16:24:35.132Z,22.20
2022-10-03T16:27:07.056Z,22.20
2022-10-03T16:29:38.916Z,22.10
2022-10-03T16:32:21.505Z,22.10
2022-10-03T16:34:49.333Z,22.20
2022-10-03T16:37:18.706Z,21.80
2022-10-03T16:39:52.816Z,21.30
2022-10-03T16:42:24.831Z,21.20
2022-10-03T16:44:55.304Z,21.30
2022-10-03T16:47:42.574Z,21.40
2022-10-03T16:50:27.771Z,21.50
2022-10-03T16:52:58.540Z,21.70
2022-10-03T16:55:31.299Z,21.80
2022-10-03T16:57:58.428Z,21.90
2022-10-03T17:00:30.503Z,21.90
2022-10-03T17:02:57.668Z,22.00
2022-10-03T17:05:25.144Z,22.10
2022-10-03T17:07:53.804Z,22.10
2022-10-03T17:10:33.662Z,22.20
2022-10-03T17:13:03.908Z,22.30
2022-10-03T17:15:37.997Z,22.30
2022-10-03T17:18:25.794Z,22.40
2022-10-03T17:21:00.867Z,22.40
2022-10-03T17:23:31.001Z,22.40
2022-10-03T17:26:16.602Z,22.40
2022-10-03T17:28:48.356Z,22.40
2022-10-03T17:31:28.578Z,22.40
2022-10-03T17:34:01.594Z,22.40
2022-10-03T17:36:32.276Z,22.40
2022-10-03T17:39:04.428Z,22.40
2022-10-03T17:41:40.866Z,22.40
2022-10-03T17:44:34.512Z,22.40
2022-10-03T17:47:18.756Z,22.50
2022-10-03T17:49:46.081Z,22.40
2022-10-03T17:52:20.376Z,22.40
2022-10-03T17:54:49.082Z,22.40
2022-10-03T17:57:16.068Z,22.40
2022-10-03T17:59:46.788Z,22.40
2022-10-03T18:02:24.102Z,22.30
2022-10-03T18:04:58.600Z,22.30
2022-10-03T18:07:27.867Z,22.20
2022-10-03T18:09:55.528Z,22.20
2022-10-03T18:12:31.810Z,22.20
2022-10-03T18:15:17.699Z,22.10
2022-10-03T18:18:15.655Z,22.00
2022-10-03T18:21:04.124Z,22.00
2022-10-03T18:23:54.736Z,22.00
2022-10-03T18:26:28.091Z,22.00
2022-10-03T18:28:58.080Z,22.00
2022-10-03T18:31:26.398Z,21.90
2022-10-03T18:33:55.635Z,21.80
2022-10-03T18:36:25.308Z,21.80
2022-10-03T18:38:55.709Z,21.80
2022-10-03T18:41:24.597Z,21.80
2022-10-03T18:43:59.723Z,21.80
2022-10-03T18:46:38.973Z,21.70
2022-10-03T18:52:13.309Z,21.70
2022-10-03T18:54:46.368Z,21.70
2022-10-03T18:57:17.280Z,21.70
2022-10-03T19:00:03.478Z,21.70
2022-10-03T19:02:45.123Z,21.70
2022-10-03T19:05:20.156Z,21.70
2022-10-03T19:08:06.636Z,21.70
2022-10-03T19:10:33.663Z,21.70
2022-10-03T19:13:11.836Z,21.70
2022-10-03T19:16:00.179Z,21.70
2022-10-03T19:18:27.899Z,21.70
2022-10-03T19:20:57.424Z,21.80
2022-10-03T19:23:38.767Z,21.80
2022-10-03T19:26:07.688Z,21.80
2022-10-03T19:28:37.882Z,21.90
2022-10-03T19:31:22.246Z,21.90
2022-10-03T19:33:51.194Z,21.90
2022-10-03T19:36:22.829Z,22.00
2022-10-03T19:38:51.929Z,22.00
2022-10-03T19:41:38.144Z,22.00
2022-10-03T19:44:16.601Z,22.00
2022-10-03T19:46:53.271Z,22.00
2022-10-03T19:49:27.731Z,22.00
2022-10-03T19:52:10.061Z,22.00
2022-10-03T19:54:44.765Z,22.00
2022-10-03T19:57:44.327Z,22.00
2022-10-03T20:00:17.327Z,21.90
2022-10-03T20:02:44.974Z,21.90
2022-10-03T20:05:23.711Z,21.90
2022-10-03T20:08:02.729Z,21.90
2022-10-03T20:10:43.109Z,21.90
2022-10-03T20:13:11.058Z,21.90
2022-10-03T20:15:43.888Z,21.80
2022-10-03T20:18:18.360Z,21.80
2022-10-03T20:20:47.701Z,21.80
2022-10-03T20:23:15.112Z,21.80
2022-10-03T20:25:44.657Z,21.70
2022-10-03T20:28:18.904Z,21.70
2022-10-03T20:30:48.278Z,21.70
2022-10-03T20:33:20.011Z,21.70
2022-10-03T20:36:01.915Z,21.70
2022-10-03T20:38:28.942Z,21.70
2022-10-03T20:41:07.327Z,21.60
2022-10-03T20:43:41.669Z,21.60
2022-10-03T20:46:12.268Z,21.60
2022-10-03T20:48:42.820Z,21.60
2022-10-03T20:51:20.712Z,21.50
2022-10-03T20:53:52.941Z,21.50
2022-10-03T20:56:25.371Z,21.50
2022-10-03T20:58:54.019Z,21.50
2022-10-03T21:01:23.343Z,21.50
2022-10-03T21:04:09.096Z,21.40
2022-10-03T21:06:54.486Z,21.40
2022-10-03T21:09:24.041Z,21.40
2022-10-03T21:11:54.613Z,21.40
2022-10-03T21:14:25.616Z,21.40
2022-10-03T21:16:53.751Z,21.30
2022-10-03T21:19:37.698Z,21.30
2022-10-03T21:22:07.360Z,21.30
2022-10-03T21:24:41.992Z,21.20
2022-10-03T21:27:13.569Z,21.20
2022-10-03T21:29:52.255Z,21.20
2022-10-03T21:32:33.191Z,21.20
2022-10-03T21:35:19.200Z,21.20
2022-10-03T21:38:18.708Z,21.10
2022-10-03T21:41:03.872Z,21.10
2022-10-03T21:43:30.986Z,21.10
2022-10-03T21:46:04.955Z,21.10
2022-10-03T21:48:31.978Z,21.10
2022-10-03T21:51:00.400Z,21.10
2022-10-03T21:53:39.014Z,21.00
2022-10-03T21:56:16.119Z,21.00
2022-10-03T21:59:02.247Z,21.00
2022-10-03T22:02:01.832Z,21.00
2022-10-03T22:04:39.874Z,21.00
2022-10-03T22:07:11.794Z,21.00
2022-10-03T22:09:49.123Z,20.90
2022-10-03T22:12:17.129Z,21.00
2022-10-03T22:15:09.438Z,20.90
2022-10-03T22:17:39.415Z,20.90
2022-10-03T22:20:23.314Z,20.90
2022-10-03T22:22:55.005Z,20.90
2022-10-03T22:25:24.985Z,20.90
2022-10-03T22:27:59.037Z,20.90
2022-10-03T22:30:26.322Z,20.90
2022-10-03T22:32:53.338Z,20.80
2022-10-03T22:35:44.093Z,20.80
2022-10-03T22:38:11.863Z,20.80
2022-10-03T22:40:39.907Z,20.80
2022-10-03T22:43:08.125Z,20.80
2022-10-03T22:45:37.842Z,20.80
2022-10-03T22:48:09.418Z,20.80
2022-10-03T22:50:41.459Z,20.80
2022-10-03T22:53:10.615Z,20.80
2022-10-03T22:55:38.648Z,20.70
2022-10-03T22:58:07.800Z,20.70
2022-10-03T23:00:35.757Z,20.70
2022-10-03T23:03:07.152Z,20.70
2022-10-03T23:06:03.448Z,20.70
2022-10-03T23:08:48.188Z,20.60
2022-10-03T23:11:23.970Z,20.70
2022-10-03T23:13:51.078Z,20.60
2022-10-03T23:16:36.239Z,20.60
2022-10-03T23:19:15.465Z,20.60
2022-10-03T23:21:49.535Z,20.60
2022-10-03T23:24:24.258Z,20.60
2022-10-03T23:27:06.349Z,20.60
2022-10-03T23:29:33.332Z,20.60
2022-10-03T23:32:07.117Z,20.50
2022-10-03T23:34:39.958Z,20.50
2022-10-03T23:37:06.946Z,20.50
2022-10-03T23:39:35.347Z,20.50
2022-10-03T23:42:25.005Z,20.50
2022-10-03T23:44:57.576Z,20.50
2022-10-03T23:47:29.416Z,20.50
2022-10-03T23:49:56.808Z,20.50
2022-10-03T23:52:28.848Z,20.50
2022-10-03T23:54:58.349Z,20.50
2022-10-03T23:57:35.554Z,20.50
